Terminal Aerodrome Forecast
Issued by NWS

Home | Current Version | Previous Version | Text Only | Print | Product List | Glossary Off
Versions: 1 2 3 4 5 6 7 8 9 10 11 12

000
FTUS43 KTOP 200520
TAFFOE
TAF
KFOE 200520Z 2006/2106 16012G20KT P6SM SKC WS017/19055KT
     FM201300 21011KT P6SM FEW200
     FM201900 33008KT P6SM SCT090
     FM202300 06006KT P6SM SCT130=

USA.gov is the U.S. government's official web portal to all federal, state and local government web resources and services.